sensor_id;sensor_type;location;lat;lon;timestamp;P1;durP1;ratioP1;P2;durP2;ratioP2
24637;SDS011;12773;50.162;8.548;2024-03-02T00:02:25;20.05;;;8.33;;
24637;SDS011;12773;50.162;8.548;2024-03-02T00:05:13;16.25;;;7.58;;
24637;SDS011;12773;50.162;8.548;2024-03-02T00:08:03;13.48;;;6.85;;
24637;SDS011;12773;50.162;8.548;2024-03-02T00:10:57;14.40;;;6.87;;
24637;SDS011;12773;50.162;8.548;2024-03-02T00:13:46;16.10;;;7.03;;
24637;SDS011;12773;50.162;8.548;2024-03-02T00:16:34;17.75;;;8.65;;
24637;SDS011;12773;50.162;8.548;2024-03-02T00:19:23;17.70;;;7.20;;
24637;SDS011;12773;50.162;8.548;2024-03-02T00:22:10;15.13;;;6.17;;
24637;SDS011;12773;50.162;8.548;2024-03-02T00:24:58;14.65;;;7.15;;
24637;SDS011;12773;50.162;8.548;2024-03-02T00:27:47;14.35;;;6.25;;
24637;SDS011;12773;50.162;8.548;2024-03-02T00:33:36;13.30;;;6.15;;
24637;SDS011;12773;50.162;8.548;2024-03-02T00:36:28;16.32;;;6.65;;
24637;SDS011;12773;50.162;8.548;2024-03-02T00:39:16;17.90;;;9.20;;
24637;SDS011;12773;50.162;8.548;2024-03-02T00:42:04;13.03;;;6.72;;
24637;SDS011;12773;50.162;8.548;2024-03-02T00:44:54;14.93;;;6.97;;
24637;SDS011;12773;50.162;8.548;2024-03-02T00:47:41;15.80;;;6.42;;
24637;SDS011;12773;50.162;8.548;2024-03-02T00:50:28;14.40;;;6.55;;
24637;SDS011;12773;50.162;8.548;2024-03-02T00:53:15;11.90;;;6.20;;
24637;SDS011;12773;50.162;8.548;2024-03-02T00:56:07;13.25;;;7.15;;
24637;SDS011;12773;50.162;8.548;2024-03-02T00:59:00;18.40;;;8.03;;
24637;SDS011;12773;50.162;8.548;2024-03-02T01:01:48;20.08;;;7.70;;
24637;SDS011;12773;50.162;8.548;2024-03-02T01:04:36;14.73;;;6.33;;
24637;SDS011;12773;50.162;8.548;2024-03-02T01:07:24;17.75;;;6.90;;
24637;SDS011;12773;50.162;8.548;2024-03-02T01:10:11;13.78;;;6.22;;
24637;SDS011;12773;50.162;8.548;2024-03-02T01:12:58;14.85;;;7.28;;
24637;SDS011;12773;50.162;8.548;2024-03-02T01:15:46;14.78;;;6.60;;
24637;SDS011;12773;50.162;8.548;2024-03-02T01:18:34;12.40;;;6.53;;
24637;SDS011;12773;50.162;8.548;2024-03-02T01:21:21;22.37;;;8.73;;
24637;SDS011;12773;50.162;8.548;2024-03-02T01:24:09;14.10;;;6.62;;
24637;SDS011;12773;50.162;8.548;2024-03-02T01:26:56;15.68;;;6.87;;
24637;SDS011;12773;50.162;8.548;2024-03-02T01:29:43;17.23;;;7.50;;
24637;SDS011;12773;50.162;8.548;2024-03-02T01:32:31;15.38;;;6.65;;
24637;SDS011;12773;50.162;8.548;2024-03-02T01:35:19;18.05;;;7.70;;
24637;SDS011;12773;50.162;8.548;2024-03-02T01:38:06;16.87;;;7.28;;
24637;SDS011;12773;50.162;8.548;2024-03-02T01:40:53;19.42;;;7.87;;
24637;SDS011;12773;50.162;8.548;2024-03-02T01:43:42;16.07;;;7.80;;
24637;SDS011;12773;50.162;8.548;2024-03-02T01:46:29;19.32;;;6.72;;
24637;SDS011;12773;50.162;8.548;2024-03-02T01:49:17;18.67;;;9.05;;
24637;SDS011;12773;50.162;8.548;2024-03-02T01:52:04;22.35;;;10.53;;
24637;SDS011;12773;50.162;8.548;2024-03-02T01:54:52;21.85;;;10.58;;
24637;SDS011;12773;50.162;8.548;2024-03-02T01:57:39;22.37;;;10.85;;
24637;SDS011;12773;50.162;8.548;2024-03-02T02:00:27;24.25;;;10.60;;
24637;SDS011;12773;50.162;8.548;2024-03-02T02:03:16;21.52;;;7.33;;
24637;SDS011;12773;50.162;8.548;2024-03-02T02:06:03;18.35;;;7.60;;
24637;SDS011;12773;50.162;8.548;2024-03-02T02:08:50;17.77;;;9.03;;
24637;SDS011;12773;50.162;8.548;2024-03-02T02:11:38;22.90;;;9.05;;
24637;SDS011;12773;50.162;8.548;2024-03-02T02:14:26;22.02;;;9.78;;
24637;SDS011;12773;50.162;8.548;2024-03-02T02:17:14;22.30;;;9.50;;
24637;SDS011;12773;50.162;8.548;2024-03-02T02:20:01;20.08;;;8.38;;
24637;SDS011;12773;50.162;8.548;2024-03-02T02:22:57;21.00;;;9.53;;
24637;SDS011;12773;50.162;8.548;2024-03-02T02:25:50;24.63;;;9.48;;
24637;SDS011;12773;50.162;8.548;2024-03-02T02:28:37;23.20;;;9.38;;
24637;SDS011;12773;50.162;8.548;2024-03-02T02:31:27;27.48;;;10.85;;
24637;SDS011;12773;50.162;8.548;2024-03-02T02:34:15;30.97;;;11.38;;
24637;SDS011;12773;50.162;8.548;2024-03-02T02:37:03;27.40;;;11.28;;
24637;SDS011;12773;50.162;8.548;2024-03-02T02:39:50;32.70;;;11.85;;
24637;SDS011;12773;50.162;8.548;2024-03-02T02:42:39;27.17;;;11.28;;
24637;SDS011;12773;50.162;8.548;2024-03-02T02:45:26;25.08;;;10.13;;
24637;SDS011;12773;50.162;8.548;2024-03-02T02:48:14;27.65;;;10.78;;
24637;SDS011;12773;50.162;8.548;2024-03-02T02:51:01;32.73;;;12.20;;
24637;SDS011;12773;50.162;8.548;2024-03-02T02:53:49;36.15;;;12.75;;
24637;SDS011;12773;50.162;8.548;2024-03-02T02:56:36;32.28;;;11.30;;
24637;SDS011;12773;50.162;8.548;2024-03-02T02:59:24;36.55;;;11.93;;
24637;SDS011;12773;50.162;8.548;2024-03-02T03:02:12;36.85;;;13.68;;
24637;SDS011;12773;50.162;8.548;2024-03-02T03:04:59;24.32;;;10.98;;
24637;SDS011;12773;50.162;8.548;2024-03-02T03:07:47;41.60;;;12.70;;
24637;SDS011;12773;50.162;8.548;2024-03-02T03:10:37;37.25;;;12.43;;
24637;SDS011;12773;50.162;8.548;2024-03-02T03:13:25;38.02;;;13.65;;
24637;SDS011;12773;50.162;8.548;2024-03-02T03:16:13;31.75;;;12.10;;
24637;SDS011;12773;50.162;8.548;2024-03-02T03:19:01;33.18;;;13.90;;
24637;SDS011;12773;50.162;8.548;2024-03-02T03:21:48;38.92;;;13.93;;
24637;SDS011;12773;50.162;8.548;2024-03-02T03:24:36;30.37;;;11.78;;
24637;SDS011;12773;50.162;8.548;2024-03-02T03:27:24;38.42;;;13.48;;
24637;SDS011;12773;50.162;8.548;2024-03-02T03:30:12;31.65;;;11.97;;
24637;SDS011;12773;50.162;8.548;2024-03-02T03:32:59;40.03;;;13.13;;
24637;SDS011;12773;50.162;8.548;2024-03-02T03:35:47;37.75;;;13.85;;
24637;SDS011;12773;50.162;8.548;2024-03-02T03:38:35;50.20;;;14.68;;
24637;SDS011;12773;50.162;8.548;2024-03-02T03:41:22;42.30;;;14.35;;
24637;SDS011;12773;50.162;8.548;2024-03-02T03:44:10;41.90;;;14.60;;
24637;SDS011;12773;50.162;8.548;2024-03-02T03:46:58;43.52;;;15.03;;
24637;SDS011;12773;50.162;8.548;2024-03-02T03:49:47;50.20;;;15.88;;
24637;SDS011;12773;50.162;8.548;2024-03-02T03:52:34;39.50;;;13.72;;
24637;SDS011;12773;50.162;8.548;2024-03-02T03:55:22;46.33;;;15.18;;
24637;SDS011;12773;50.162;8.548;2024-03-02T03:58:09;47.88;;;16.05;;
24637;SDS011;12773;50.162;8.548;2024-03-02T04:00:57;46.23;;;14.93;;
24637;SDS011;12773;50.162;8.548;2024-03-02T04:03:44;42.85;;;14.93;;
24637;SDS011;12773;50.162;8.548;2024-03-02T04:06:32;45.67;;;15.20;;
24637;SDS011;12773;50.162;8.548;2024-03-02T04:09:19;44.53;;;14.43;;
24637;SDS011;12773;50.162;8.548;2024-03-02T04:12:07;44.73;;;14.95;;
24637;SDS011;12773;50.162;8.548;2024-03-02T04:14:54;41.90;;;13.83;;
24637;SDS011;12773;50.162;8.548;2024-03-02T04:17:42;47.50;;;14.78;;
24637;SDS011;12773;50.162;8.548;2024-03-02T04:20:29;35.83;;;12.93;;
24637;SDS011;12773;50.162;8.548;2024-03-02T04:23:16;44.08;;;13.62;;
24637;SDS011;12773;50.162;8.548;2024-03-02T04:26:04;53.85;;;15.78;;
24637;SDS011;12773;50.162;8.548;2024-03-02T04:28:51;39.60;;;13.70;;
24637;SDS011;12773;50.162;8.548;2024-03-02T04:31:39;38.45;;;12.33;;
24637;SDS011;12773;50.162;8.548;2024-03-02T04:34:27;39.08;;;13.68;;
24637;SDS011;12773;50.162;8.548;2024-03-02T04:37:14;44.38;;;15.15;;
24637;SDS011;12773;50.162;8.548;2024-03-02T04:40:02;46.23;;;15.23;;
24637;SDS011;12773;50.162;8.548;2024-03-02T04:42:50;48.90;;;16.42;;
24637;SDS011;12773;50.162;8.548;2024-03-02T04:45:38;42.70;;;14.18;;
24637;SDS011;12773;50.162;8.548;2024-03-02T04:48:25;44.25;;;15.00;;
24637;SDS011;12773;50.162;8.548;2024-03-02T04:51:13;39.42;;;13.45;;
24637;SDS011;12773;50.162;8.548;2024-03-02T04:54:00;49.27;;;14.55;;
24637;SDS011;12773;50.162;8.548;2024-03-02T04:56:48;41.88;;;13.78;;
24637;SDS011;12773;50.162;8.548;2024-03-02T04:59:36;43.33;;;13.83;;
24637;SDS011;12773;50.162;8.548;2024-03-02T05:02:23;42.75;;;13.75;;
24637;SDS011;12773;50.162;8.548;2024-03-02T05:05:11;36.30;;;12.88;;
24637;SDS011;12773;50.162;8.548;2024-03-02T05:08:00;54.95;;;16.48;;
24637;SDS011;12773;50.162;8.548;2024-03-02T05:10:49;48.13;;;14.78;;
24637;SDS011;12773;50.162;8.548;2024-03-02T05:13:36;44.58;;;14.35;;
24637;SDS011;12773;50.162;8.548;2024-03-02T05:16:24;46.98;;;14.05;;
24637;SDS011;12773;50.162;8.548;2024-03-02T05:19:11;57.83;;;16.05;;
24637;SDS011;12773;50.162;8.548;2024-03-02T05:21:58;46.70;;;13.32;;
24637;SDS011;12773;50.162;8.548;2024-03-02T05:24:46;40.33;;;12.00;;
24637;SDS011;12773;50.162;8.548;2024-03-02T05:27:33;45.28;;;14.35;;
24637;SDS011;12773;50.162;8.548;2024-03-02T05:30:21;49.23;;;14.78;;
24637;SDS011;12773;50.162;8.548;2024-03-02T05:33:08;54.83;;;15.20;;
24637;SDS011;12773;50.162;8.548;2024-03-02T05:35:55;60.88;;;17.77;;
24637;SDS011;12773;50.162;8.548;2024-03-02T05:38:43;62.15;;;17.70;;
24637;SDS011;12773;50.162;8.548;2024-03-02T05:41:30;61.35;;;19.10;;
24637;SDS011;12773;50.162;8.548;2024-03-02T05:44:18;46.50;;;15.28;;
24637;SDS011;12773;50.162;8.548;2024-03-02T05:47:05;52.38;;;15.43;;
24637;SDS011;12773;50.162;8.548;2024-03-02T05:49:54;46.08;;;14.85;;
24637;SDS011;12773;50.162;8.548;2024-03-02T05:52:42;48.00;;;14.68;;
24637;SDS011;12773;50.162;8.548;2024-03-02T05:55:29;49.55;;;15.13;;
24637;SDS011;12773;50.162;8.548;2024-03-02T05:58:17;49.70;;;15.35;;
24637;SDS011;12773;50.162;8.548;2024-03-02T06:01:06;39.92;;;14.50;;
24637;SDS011;12773;50.162;8.548;2024-03-02T06:03:55;56.90;;;15.88;;
24637;SDS011;12773;50.162;8.548;2024-03-02T06:06:43;51.10;;;15.25;;
24637;SDS011;12773;50.162;8.548;2024-03-02T06:09:30;44.13;;;15.38;;
24637;SDS011;12773;50.162;8.548;2024-03-02T06:12:18;45.12;;;15.08;;
24637;SDS011;12773;50.162;8.548;2024-03-02T06:15:06;40.98;;;14.20;;
24637;SDS011;12773;50.162;8.548;2024-03-02T06:17:53;38.80;;;14.05;;
24637;SDS011;12773;50.162;8.548;2024-03-02T06:20:41;51.18;;;17.12;;
24637;SDS011;12773;50.162;8.548;2024-03-02T06:23:28;55.03;;;17.42;;
24637;SDS011;12773;50.162;8.548;2024-03-02T06:26:16;36.85;;;14.07;;
24637;SDS011;12773;50.162;8.548;2024-03-02T06:29:05;46.08;;;15.45;;
24637;SDS011;12773;50.162;8.548;2024-03-02T06:31:53;51.63;;;16.27;;
24637;SDS011;12773;50.162;8.548;2024-03-02T06:34:41;43.55;;;15.23;;
24637;SDS011;12773;50.162;8.548;2024-03-02T06:37:28;47.33;;;16.23;;
24637;SDS011;12773;50.162;8.548;2024-03-02T06:40:15;43.02;;;15.85;;
24637;SDS011;12773;50.162;8.548;2024-03-02T06:43:03;38.58;;;13.88;;
24637;SDS011;12773;50.162;8.548;2024-03-02T06:45:51;40.55;;;13.62;;
24637;SDS011;12773;50.162;8.548;2024-03-02T06:48:38;58.17;;;17.55;;
24637;SDS011;12773;50.162;8.548;2024-03-02T06:51:25;50.40;;;15.15;;
24637;SDS011;12773;50.162;8.548;2024-03-02T06:54:13;50.40;;;15.10;;
24637;SDS011;12773;50.162;8.548;2024-03-02T06:57:00;49.18;;;15.53;;
24637;SDS011;12773;50.162;8.548;2024-03-02T06:59:48;53.95;;;17.15;;
24637;SDS011;12773;50.162;8.548;2024-03-02T07:02:37;57.62;;;16.75;;
24637;SDS011;12773;50.162;8.548;2024-03-02T07:05:26;46.00;;;13.55;;
24637;SDS011;12773;50.162;8.548;2024-03-02T07:08:13;58.92;;;18.77;;
24637;SDS011;12773;50.162;8.548;2024-03-02T07:11:01;45.67;;;16.95;;
24637;SDS011;12773;50.162;8.548;2024-03-02T07:13:48;60.50;;;18.90;;
24637;SDS011;12773;50.162;8.548;2024-03-02T07:16:37;53.38;;;15.63;;
24637;SDS011;12773;50.162;8.548;2024-03-02T07:19:25;63.17;;;18.10;;
24637;SDS011;12773;50.162;8.548;2024-03-02T07:22:13;52.43;;;16.57;;
24637;SDS011;12773;50.162;8.548;2024-03-02T07:25:00;64.15;;;18.48;;
24637;SDS011;12773;50.162;8.548;2024-03-02T07:27:49;43.05;;;14.07;;
24637;SDS011;12773;50.162;8.548;2024-03-02T07:30:36;46.10;;;14.95;;
24637;SDS011;12773;50.162;8.548;2024-03-02T07:33:24;59.40;;;18.48;;
24637;SDS011;12773;50.162;8.548;2024-03-02T07:36:12;65.22;;;21.33;;
24637;SDS011;12773;50.162;8.548;2024-03-02T07:39:00;59.85;;;20.48;;
24637;SDS011;12773;50.162;8.548;2024-03-02T07:41:48;40.15;;;14.50;;
24637;SDS011;12773;50.162;8.548;2024-03-02T07:44:35;46.02;;;15.43;;
24637;SDS011;12773;50.162;8.548;2024-03-02T07:47:24;61.73;;;20.92;;
24637;SDS011;12773;50.162;8.548;2024-03-02T07:50:12;80.38;;;26.73;;
24637;SDS011;12773;50.162;8.548;2024-03-02T07:52:59;61.73;;;22.35;;
24637;SDS011;12773;50.162;8.548;2024-03-02T07:55:47;64.12;;;25.25;;
24637;SDS011;12773;50.162;8.548;2024-03-02T07:58:35;60.05;;;24.37;;
24637;SDS011;12773;50.162;8.548;2024-03-02T08:01:22;62.30;;;23.92;;
24637;SDS011;12773;50.162;8.548;2024-03-02T08:04:10;63.45;;;24.50;;
24637;SDS011;12773;50.162;8.548;2024-03-02T08:06:58;55.78;;;22.70;;
24637;SDS011;12773;50.162;8.548;2024-03-02T08:09:45;51.95;;;22.37;;
24637;SDS011;12773;50.162;8.548;2024-03-02T08:12:32;49.42;;;21.35;;
24637;SDS011;12773;50.162;8.548;2024-03-02T08:15:20;53.52;;;21.48;;
24637;SDS011;12773;50.162;8.548;2024-03-02T08:18:07;49.45;;;20.77;;
24637;SDS011;12773;50.162;8.548;2024-03-02T08:20:55;45.28;;;20.52;;
24637;SDS011;12773;50.162;8.548;2024-03-02T08:23:42;43.78;;;20.02;;
24637;SDS011;12773;50.162;8.548;2024-03-02T08:26:30;38.58;;;18.12;;
24637;SDS011;12773;50.162;8.548;2024-03-02T08:29:17;41.42;;;18.05;;
24637;SDS011;12773;50.162;8.548;2024-03-02T08:32:05;40.00;;;19.62;;
24637;SDS011;12773;50.162;8.548;2024-03-02T08:34:53;37.45;;;17.92;;
24637;SDS011;12773;50.162;8.548;2024-03-02T08:37:41;45.50;;;18.30;;
24637;SDS011;12773;50.162;8.548;2024-03-02T08:40:29;35.00;;;17.23;;
24637;SDS011;12773;50.162;8.548;2024-03-02T08:43:17;37.55;;;16.32;;
24637;SDS011;12773;50.162;8.548;2024-03-02T08:46:04;34.53;;;16.17;;
24637;SDS011;12773;50.162;8.548;2024-03-02T08:48:52;34.23;;;16.70;;
24637;SDS011;12773;50.162;8.548;2024-03-02T08:51:40;30.77;;;14.83;;
24637;SDS011;12773;50.162;8.548;2024-03-02T08:54:27;33.67;;;16.40;;
24637;SDS011;12773;50.162;8.548;2024-03-02T08:57:14;31.07;;;16.00;;
24637;SDS011;12773;50.162;8.548;2024-03-02T09:00:02;33.28;;;15.43;;
24637;SDS011;12773;50.162;8.548;2024-03-02T09:02:51;36.08;;;16.32;;
24637;SDS011;12773;50.162;8.548;2024-03-02T09:05:38;31.85;;;15.90;;
24637;SDS011;12773;50.162;8.548;2024-03-02T09:08:26;32.83;;;15.25;;
24637;SDS011;12773;50.162;8.548;2024-03-02T09:11:13;36.42;;;16.90;;
24637;SDS011;12773;50.162;8.548;2024-03-02T09:14:01;34.85;;;16.50;;
24637;SDS011;12773;50.162;8.548;2024-03-02T09:16:48;33.38;;;17.55;;
24637;SDS011;12773;50.162;8.548;2024-03-02T09:19:36;34.15;;;16.20;;
24637;SDS011;12773;50.162;8.548;2024-03-02T09:22:24;34.40;;;16.23;;
24637;SDS011;12773;50.162;8.548;2024-03-02T09:25:12;31.73;;;15.80;;
24637;SDS011;12773;50.162;8.548;2024-03-02T09:27:59;31.20;;;16.10;;
24637;SDS011;12773;50.162;8.548;2024-03-02T09:30:47;31.05;;;16.42;;
24637;SDS011;12773;50.162;8.548;2024-03-02T09:33:34;33.60;;;15.93;;
24637;SDS011;12773;50.162;8.548;2024-03-02T09:36:22;29.42;;;14.87;;
24637;SDS011;12773;50.162;8.548;2024-03-02T09:39:10;30.88;;;15.18;;
24637;SDS011;12773;50.162;8.548;2024-03-02T09:41:58;27.55;;;14.98;;
24637;SDS011;12773;50.162;8.548;2024-03-02T09:44:45;32.33;;;16.07;;
24637;SDS011;12773;50.162;8.548;2024-03-02T09:47:33;32.38;;;15.35;;
24637;SDS011;12773;50.162;8.548;2024-03-02T09:50:21;33.70;;;15.55;;
24637;SDS011;12773;50.162;8.548;2024-03-02T09:53:09;27.52;;;14.80;;
24637;SDS011;12773;50.162;8.548;2024-03-02T09:56:01;33.63;;;15.00;;
24637;SDS011;12773;50.162;8.548;2024-03-02T09:58:49;27.05;;;14.63;;
24637;SDS011;12773;50.162;8.548;2024-03-02T10:01:37;30.20;;;14.15;;
24637;SDS011;12773;50.162;8.548;2024-03-02T10:04:25;26.60;;;14.73;;
24637;SDS011;12773;50.162;8.548;2024-03-02T10:07:14;24.50;;;13.48;;
24637;SDS011;12773;50.162;8.548;2024-03-02T10:10:15;24.12;;;13.38;;
24637;SDS011;12773;50.162;8.548;2024-03-02T10:13:03;26.82;;;13.80;;
24637;SDS011;12773;50.162;8.548;2024-03-02T10:15:51;28.70;;;12.88;;
24637;SDS011;12773;50.162;8.548;2024-03-02T10:18:40;23.65;;;12.60;;
24637;SDS011;12773;50.162;8.548;2024-03-02T10:21:28;23.83;;;12.40;;
24637;SDS011;12773;50.162;8.548;2024-03-02T10:24:15;24.77;;;13.13;;
24637;SDS011;12773;50.162;8.548;2024-03-02T10:27:07;26.05;;;13.18;;
24637;SDS011;12773;50.162;8.548;2024-03-02T10:30:05;23.47;;;13.18;;
24637;SDS011;12773;50.162;8.548;2024-03-02T10:32:56;21.95;;;11.90;;
24637;SDS011;12773;50.162;8.548;2024-03-02T10:35:43;21.15;;;11.90;;
24637;SDS011;12773;50.162;8.548;2024-03-02T10:38:31;21.12;;;10.82;;
24637;SDS011;12773;50.162;8.548;2024-03-02T10:41:18;23.52;;;11.88;;
24637;SDS011;12773;50.162;8.548;2024-03-02T10:44:08;20.75;;;11.15;;
24637;SDS011;12773;50.162;8.548;2024-03-02T10:46:56;18.10;;;10.05;;
24637;SDS011;12773;50.162;8.548;2024-03-02T10:49:49;20.62;;;10.65;;
24637;SDS011;12773;50.162;8.548;2024-03-02T10:52:38;20.97;;;10.80;;
24637;SDS011;12773;50.162;8.548;2024-03-02T10:55:26;18.23;;;10.08;;
24637;SDS011;12773;50.162;8.548;2024-03-02T10:58:14;19.23;;;10.05;;
24637;SDS011;12773;50.162;8.548;2024-03-02T11:01:02;19.32;;;9.78;;
24637;SDS011;12773;50.162;8.548;2024-03-02T11:03:52;19.12;;;10.78;;
24637;SDS011;12773;50.162;8.548;2024-03-02T11:06:41;17.85;;;9.55;;
24637;SDS011;12773;50.162;8.548;2024-03-02T11:09:32;16.65;;;9.68;;
24637;SDS011;12773;50.162;8.548;2024-03-02T11:12:44;19.15;;;9.95;;
24637;SDS011;12773;50.162;8.548;2024-03-02T11:15:33;18.30;;;9.85;;
24637;SDS011;12773;50.162;8.548;2024-03-02T11:18:24;16.95;;;8.25;;
24637;SDS011;12773;50.162;8.548;2024-03-02T11:21:13;13.50;;;8.28;;
24637;SDS011;12773;50.162;8.548;2024-03-02T11:24:28;17.20;;;8.43;;
24637;SDS011;12773;50.162;8.548;2024-03-02T11:27:10;14.03;;;8.50;;
24637;SDS011;12773;50.162;8.548;2024-03-02T11:29:58;15.48;;;8.68;;
24637;SDS011;12773;50.162;8.548;2024-03-02T11:32:54;16.80;;;9.68;;
24637;SDS011;12773;50.162;8.548;2024-03-02T11:35:43;15.18;;;9.08;;
24637;SDS011;12773;50.162;8.548;2024-03-02T11:38:33;15.43;;;9.33;;
24637;SDS011;12773;50.162;8.548;2024-03-02T11:41:22;17.32;;;9.85;;
24637;SDS011;12773;50.162;8.548;2024-03-02T11:44:10;16.02;;;9.08;;
24637;SDS011;12773;50.162;8.548;2024-03-02T11:46:59;15.85;;;8.88;;
24637;SDS011;12773;50.162;8.548;2024-03-02T11:49:50;15.38;;;9.00;;
24637;SDS011;12773;50.162;8.548;2024-03-02T11:52:38;17.10;;;8.95;;
24637;SDS011;12773;50.162;8.548;2024-03-02T11:55:28;15.80;;;8.95;;
24637;SDS011;12773;50.162;8.548;2024-03-02T11:58:16;14.47;;;7.60;;
24637;SDS011;12773;50.162;8.548;2024-03-02T12:01:06;17.02;;;7.95;;
24637;SDS011;12773;50.162;8.548;2024-03-02T12:03:53;19.82;;;9.10;;
24637;SDS011;12773;50.162;8.548;2024-03-02T12:06:41;17.45;;;8.83;;
24637;SDS011;12773;50.162;8.548;2024-03-02T12:09:29;16.00;;;8.88;;
24637;SDS011;12773;50.162;8.548;2024-03-02T12:12:16;21.93;;;9.03;;
24637;SDS011;12773;50.162;8.548;2024-03-02T12:15:06;15.20;;;8.38;;
24637;SDS011;12773;50.162;8.548;2024-03-02T12:17:57;16.80;;;8.33;;
24637;SDS011;12773;50.162;8.548;2024-03-02T12:20:46;18.62;;;9.23;;
24637;SDS011;12773;50.162;8.548;2024-03-02T12:23:37;15.45;;;8.53;;
24637;SDS011;12773;50.162;8.548;2024-03-02T12:26:24;14.60;;;7.90;;
24637;SDS011;12773;50.162;8.548;2024-03-02T12:29:12;15.08;;;8.53;;
24637;SDS011;12773;50.162;8.548;2024-03-02T12:32:00;14.95;;;8.43;;
24637;SDS011;12773;50.162;8.548;2024-03-02T12:34:48;14.13;;;8.25;;
24637;SDS011;12773;50.162;8.548;2024-03-02T12:37:44;14.80;;;8.33;;
24637;SDS011;12773;50.162;8.548;2024-03-02T12:40:36;15.08;;;8.55;;
24637;SDS011;12773;50.162;8.548;2024-03-02T12:43:23;14.25;;;8.73;;
24637;SDS011;12773;50.162;8.548;2024-03-02T12:46:10;12.93;;;7.87;;
24637;SDS011;12773;50.162;8.548;2024-03-02T12:48:58;14.07;;;7.50;;
24637;SDS011;12773;50.162;8.548;2024-03-02T12:51:49;15.18;;;7.97;;
24637;SDS011;12773;50.162;8.548;2024-03-02T12:54:38;16.65;;;7.45;;
24637;SDS011;12773;50.162;8.548;2024-03-02T12:57:26;17.15;;;8.83;;
24637;SDS011;12773;50.162;8.548;2024-03-02T13:00:17;15.13;;;8.73;;
24637;SDS011;12773;50.162;8.548;2024-03-02T13:03:06;13.60;;;8.33;;
24637;SDS011;12773;50.162;8.548;2024-03-02T13:05:53;13.95;;;8.30;;
24637;SDS011;12773;50.162;8.548;2024-03-02T13:08:41;14.28;;;7.97;;
24637;SDS011;12773;50.162;8.548;2024-03-02T13:11:29;13.13;;;7.40;;
24637;SDS011;12773;50.162;8.548;2024-03-02T13:14:16;17.37;;;8.13;;
24637;SDS011;12773;50.162;8.548;2024-03-02T13:17:04;12.25;;;7.17;;
24637;SDS011;12773;50.162;8.548;2024-03-02T13:19:52;13.85;;;7.75;;
24637;SDS011;12773;50.162;8.548;2024-03-02T13:22:39;15.18;;;7.78;;
24637;SDS011;12773;50.162;8.548;2024-03-02T13:25:27;12.45;;;7.37;;
24637;SDS011;12773;50.162;8.548;2024-03-02T13:28:18;13.68;;;7.60;;
24637;SDS011;12773;50.162;8.548;2024-03-02T13:31:05;14.13;;;7.80;;
24637;SDS011;12773;50.162;8.548;2024-03-02T13:33:52;13.55;;;7.92;;
24637;SDS011;12773;50.162;8.548;2024-03-02T13:36:40;13.90;;;7.70;;
24637;SDS011;12773;50.162;8.548;2024-03-02T13:39:27;16.82;;;8.15;;
24637;SDS011;12773;50.162;8.548;2024-03-02T13:42:17;12.33;;;6.78;;
24637;SDS011;12773;50.162;8.548;2024-03-02T13:45:04;16.02;;;7.20;;
24637;SDS011;12773;50.162;8.548;2024-03-02T13:47:52;14.38;;;7.20;;
24637;SDS011;12773;50.162;8.548;2024-03-02T13:50:40;11.75;;;6.85;;
24637;SDS011;12773;50.162;8.548;2024-03-02T13:53:28;14.53;;;7.28;;
24637;SDS011;12773;50.162;8.548;2024-03-02T13:56:15;9.98;;;6.47;;
24637;SDS011;12773;50.162;8.548;2024-03-02T13:59:03;11.85;;;6.22;;
24637;SDS011;12773;50.162;8.548;2024-03-02T14:01:51;11.63;;;6.37;;
24637;SDS011;12773;50.162;8.548;2024-03-02T14:04:39;12.35;;;6.90;;
24637;SDS011;12773;50.162;8.548;2024-03-02T14:07:26;12.00;;;6.47;;
24637;SDS011;12773;50.162;8.548;2024-03-02T14:10:14;10.80;;;6.78;;
24637;SDS011;12773;50.162;8.548;2024-03-02T14:13:02;12.07;;;6.53;;
24637;SDS011;12773;50.162;8.548;2024-03-02T14:15:51;10.55;;;5.55;;
24637;SDS011;12773;50.162;8.548;2024-03-02T14:18:38;9.55;;;6.05;;
24637;SDS011;12773;50.162;8.548;2024-03-02T14:21:26;10.15;;;5.60;;
24637;SDS011;12773;50.162;8.548;2024-03-02T14:24:14;9.53;;;5.25;;
24637;SDS011;12773;50.162;8.548;2024-03-02T14:27:01;10.30;;;5.00;;
24637;SDS011;12773;50.162;8.548;2024-03-02T14:29:51;8.65;;;4.85;;
24637;SDS011;12773;50.162;8.548;2024-03-02T14:32:39;19.75;;;5.20;;
24637;SDS011;12773;50.162;8.548;2024-03-02T14:35:26;8.13;;;4.17;;
24637;SDS011;12773;50.162;8.548;2024-03-02T14:38:14;8.48;;;4.42;;
24637;SDS011;12773;50.162;8.548;2024-03-02T14:41:01;7.00;;;4.08;;
24637;SDS011;12773;50.162;8.548;2024-03-02T14:43:50;8.55;;;4.60;;
24637;SDS011;12773;50.162;8.548;2024-03-02T14:46:37;6.97;;;3.65;;
24637;SDS011;12773;50.162;8.548;2024-03-02T14:49:27;8.00;;;3.98;;
24637;SDS011;12773;50.162;8.548;2024-03-02T14:52:15;7.17;;;4.12;;
24637;SDS011;12773;50.162;8.548;2024-03-02T14:55:04;6.90;;;3.47;;
24637;SDS011;12773;50.162;8.548;2024-03-02T14:57:53;8.28;;;3.80;;
24637;SDS011;12773;50.162;8.548;2024-03-02T15:00:41;5.95;;;3.42;;
24637;SDS011;12773;50.162;8.548;2024-03-02T15:03:29;6.70;;;3.90;;
24637;SDS011;12773;50.162;8.548;2024-03-02T15:06:16;5.90;;;3.65;;
24637;SDS011;12773;50.162;8.548;2024-03-02T15:09:03;8.08;;;3.50;;
24637;SDS011;12773;50.162;8.548;2024-03-02T15:11:52;7.17;;;3.25;;
24637;SDS011;12773;50.162;8.548;2024-03-02T15:14:39;7.22;;;3.87;;
24637;SDS011;12773;50.162;8.548;2024-03-02T15:17:31;8.03;;;3.95;;
24637;SDS011;12773;50.162;8.548;2024-03-02T15:20:19;7.15;;;3.90;;
24637;SDS011;12773;50.162;8.548;2024-03-02T15:23:07;8.05;;;3.98;;
24637;SDS011;12773;50.162;8.548;2024-03-02T15:25:55;8.58;;;4.35;;
24637;SDS011;12773;50.162;8.548;2024-03-02T15:28:43;7.47;;;3.70;;
24637;SDS011;12773;50.162;8.548;2024-03-02T15:31:30;9.58;;;3.87;;
24637;SDS011;12773;50.162;8.548;2024-03-02T15:34:17;8.53;;;4.10;;
24637;SDS011;12773;50.162;8.548;2024-03-02T15:37:05;6.90;;;4.42;;
24637;SDS011;12773;50.162;8.548;2024-03-02T15:39:52;7.33;;;4.60;;
24637;SDS011;12773;50.162;8.548;2024-03-02T15:42:40;9.80;;;4.78;;
24637;SDS011;12773;50.162;8.548;2024-03-02T15:45:27;8.68;;;4.72;;
24637;SDS011;12773;50.162;8.548;2024-03-02T15:48:16;6.25;;;4.28;;
24637;SDS011;12773;50.162;8.548;2024-03-02T15:51:04;5.92;;;3.50;;
24637;SDS011;12773;50.162;8.548;2024-03-02T15:53:52;5.42;;;3.27;;
24637;SDS011;12773;50.162;8.548;2024-03-02T15:56:40;6.60;;;3.27;;
24637;SDS011;12773;50.162;8.548;2024-03-02T15:59:28;6.97;;;3.50;;
24637;SDS011;12773;50.162;8.548;2024-03-02T16:02:16;10.13;;;5.00;;
24637;SDS011;12773;50.162;8.548;2024-03-02T16:05:03;13.72;;;5.08;;
24637;SDS011;12773;50.162;8.548;2024-03-02T16:07:51;10.78;;;3.83;;
24637;SDS011;12773;50.162;8.548;2024-03-02T16:10:39;11.65;;;5.35;;
24637;SDS011;12773;50.162;8.548;2024-03-02T16:13:26;12.50;;;7.20;;
24637;SDS011;12773;50.162;8.548;2024-03-02T16:16:14;10.68;;;3.95;;
24637;SDS011;12773;50.162;8.548;2024-03-02T16:19:01;6.62;;;3.83;;
24637;SDS011;12773;50.162;8.548;2024-03-02T16:21:51;7.10;;;4.62;;
24637;SDS011;12773;50.162;8.548;2024-03-02T16:24:38;6.90;;;3.95;;
24637;SDS011;12773;50.162;8.548;2024-03-02T16:27:26;7.12;;;3.30;;
24637;SDS011;12773;50.162;8.548;2024-03-02T16:30:14;11.57;;;3.25;;
24637;SDS011;12773;50.162;8.548;2024-03-02T16:33:01;13.32;;;5.37;;
24637;SDS011;12773;50.162;8.548;2024-03-02T16:35:49;18.02;;;4.62;;